This is the latest recevied weather packets stored in our database for station/object N5RPG. If no packets are shown the sender has not sent any weather packets the latest 1 day(s).
| Time | Temp. | Humidity | Pressure | Rain* | Wind** | Luminosity | Snow |
|---|---|---|---|---|---|---|---|
| 1778020985 | 30.56° C | 63% | 1006.1 hPa | 0 mm | 0.89 m/s, 113° | 277 W/m² | - |
| 1778020682 | 30.56° C | 62% | 1006.1 hPa | 0 mm | 1.79 m/s, 144° | 403 W/m² | - |
| 1778020379 | 30.56° C | 63% | 1006.3 hPa | 0 mm | 0 m/s | 291 W/m² | - |
| 1778020075 | 30.56° C | 62% | 1006.2 hPa | 0 mm | 0.89 m/s, 214° | 168 W/m² | - |
| 1778019771 | 30.56° C | 62% | 1006.3 hPa | 0 mm | 1.34 m/s, 207° | 441 W/m² | - |
| 1778019468 | 30° C | 61% | 1006.5 hPa | 0 mm | 2.68 m/s, 264° | 510 W/m² | - |
| 1778019165 | 30° C | 62% | 1006.4 hPa | 0 mm | 1.79 m/s, 210° | 378 W/m² | - |
| 1778018861 | 30° C | 62% | 1006.3 hPa | 0 mm | 2.68 m/s, 217° | 433 W/m² | - |
| 1778018559 | 30° C | 62% | 1006.5 hPa | 0 mm | 1.79 m/s, 207° | 321 W/m² | - |
| 1778018257 | 31.11° C | 62% | 1006.5 hPa | 0 mm | 2.24 m/s, 224° | 401 W/m² | - |
| 1778017955 | 30.56° C | 62% | 1006.4 hPa | 0 mm | 1.79 m/s, 120° | 604 W/m² | - |
| 1778017652 | 30° C | 63% | 1006.5 hPa | 0 mm | 1.79 m/s, 217° | 454 W/m² | - |
| 1778017349 | 30° C | 63% | 1006.6 hPa | 0 mm | 2.24 m/s, 122° | 241 W/m² | - |
| 1778017047 | 30.56° C | 62% | 1006.7 hPa | 0 mm | 1.34 m/s, 212° | 253 W/m² | - |
| 1778016744 | 30.56° C | 63% | 1006.6 hPa | 0 mm | 1.34 m/s, 211° | 556 W/m² | - |
| 1778016440 | 30° C | 63% | 1006.6 hPa | 0 mm | 1.34 m/s, 272° | 571 W/m² | - |
| 1778016137 | 30° C | 64% | 1006.7 hPa | 0 mm | 1.79 m/s, 223° | 680 W/m² | - |
| 1778015834 | 29.44° C | 65% | 1006.7 hPa | 0 mm | 0.89 m/s, 216° | 709 W/m² | - |
| 1778015531 | 29.44° C | 65% | 1006.8 hPa | 0 mm | 2.24 m/s, 213° | 797 W/m² | - |
| 1778015228 | 28.89° C | 67% | 1006.6 hPa | 0 mm | 0.89 m/s, 224° | 266 W/m² | - |
| 1778014925 | 28.89° C | 67% | 1006.8 hPa | 0 mm | 3.13 m/s, 221° | 593 W/m² | - |
| 1778014622 | 28.89° C | 69% | 1006.7 hPa | 0 mm | 0.89 m/s, 150° | 712 W/m² | - |
| 1778014320 | 28.89° C | 67% | 1007 hPa | 0 mm | 1.79 m/s, 201° | 276 W/m² | - |
| 1778014016 | 28.89° C | 68% | 1007 hPa | 0 mm | 0.45 m/s, 210° | 631 W/m² | - |
| 1778013715 | 28.89° C | 68% | 1007.1 hPa | 0 mm | 0.45 m/s, 211° | 616 W/m² | - |
* Rain latest hour (hover to see other rain measurements)
** Current wind speed in m/s (hover to see current wind gust speed)